sensor_id;sensor_type;location;lat;lon;timestamp;P1;durP1;ratioP1;P2;durP2;ratioP2
74626;SDS011;63132;52.268;5.192;2022-12-16T00:01:15;105.20;;;64.93;;
74626;SDS011;63132;52.268;5.192;2022-12-16T00:03:46;116.15;;;65.75;;
74626;SDS011;63132;52.268;5.192;2022-12-16T00:06:12;121.65;;;70.35;;
74626;SDS011;63132;52.268;5.192;2022-12-16T00:08:38;126.20;;;65.90;;
74626;SDS011;63132;52.268;5.192;2022-12-16T00:11:04;109.82;;;61.58;;
74626;SDS011;63132;52.268;5.192;2022-12-16T00:13:33;113.60;;;62.60;;
74626;SDS011;63132;52.268;5.192;2022-12-16T00:16:03;110.32;;;60.50;;
74626;SDS011;63132;52.268;5.192;2022-12-16T00:18:29;103.80;;;54.67;;
74626;SDS011;63132;52.268;5.192;2022-12-16T00:20:54;95.43;;;49.70;;
74626;SDS011;63132;52.268;5.192;2022-12-16T00:23:20;77.53;;;42.17;;
74626;SDS011;63132;52.268;5.192;2022-12-16T00:25:46;70.80;;;38.50;;
74626;SDS011;63132;52.268;5.192;2022-12-16T00:28:12;60.77;;;34.20;;
74626;SDS011;63132;52.268;5.192;2022-12-16T00:30:40;61.42;;;30.55;;
74626;SDS011;63132;52.268;5.192;2022-12-16T00:33:06;50.38;;;28.45;;
74626;SDS011;63132;52.268;5.192;2022-12-16T00:35:31;46.57;;;25.60;;
74626;SDS011;63132;52.268;5.192;2022-12-16T00:37:57;41.63;;;23.33;;
74626;SDS011;63132;52.268;5.192;2022-12-16T00:40:22;40.27;;;21.63;;
74626;SDS011;63132;52.268;5.192;2022-12-16T00:42:48;35.50;;;19.33;;
74626;SDS011;63132;52.268;5.192;2022-12-16T00:45:13;32.80;;;16.63;;
74626;SDS011;63132;52.268;5.192;2022-12-16T00:47:39;27.63;;;14.87;;
74626;SDS011;63132;52.268;5.192;2022-12-16T00:50:04;25.70;;;12.80;;
74626;SDS011;63132;52.268;5.192;2022-12-16T00:52:30;21.30;;;10.43;;
74626;SDS011;63132;52.268;5.192;2022-12-16T00:54:56;24.80;;;10.07;;
74626;SDS011;63132;52.268;5.192;2022-12-16T00:57:21;21.93;;;9.57;;
74626;SDS011;63132;52.268;5.192;2022-12-16T00:59:47;22.37;;;9.37;;
74626;SDS011;63132;52.268;5.192;2022-12-16T01:02:12;20.58;;;8.13;;
74626;SDS011;63132;52.268;5.192;2022-12-16T01:04:38;21.63;;;7.72;;
74626;SDS011;63132;52.268;5.192;2022-12-16T01:07:03;21.92;;;7.65;;
74626;SDS011;63132;52.268;5.192;2022-12-16T01:09:29;15.93;;;7.00;;
74626;SDS011;63132;52.268;5.192;2022-12-16T01:11:54;14.13;;;7.35;;
74626;SDS011;63132;52.268;5.192;2022-12-16T01:14:20;15.97;;;7.30;;
74626;SDS011;63132;52.268;5.192;2022-12-16T01:16:45;15.93;;;6.63;;
74626;SDS011;63132;52.268;5.192;2022-12-16T01:19:11;18.13;;;7.00;;
74626;SDS011;63132;52.268;5.192;2022-12-16T01:21:36;16.73;;;6.70;;
74626;SDS011;63132;52.268;5.192;2022-12-16T01:24:02;20.58;;;7.60;;
74626;SDS011;63132;52.268;5.192;2022-12-16T01:26:28;20.08;;;7.63;;
74626;SDS011;63132;52.268;5.192;2022-12-16T01:28:53;17.13;;;7.13;;
74626;SDS011;63132;52.268;5.192;2022-12-16T01:31:19;21.13;;;7.50;;
74626;SDS011;63132;52.268;5.192;2022-12-16T01:33:45;16.73;;;7.88;;
74626;SDS011;63132;52.268;5.192;2022-12-16T01:36:11;18.50;;;7.43;;
74626;SDS011;63132;52.268;5.192;2022-12-16T01:38:36;19.27;;;8.10;;
74626;SDS011;63132;52.268;5.192;2022-12-16T01:41:02;16.77;;;7.47;;
74626;SDS011;63132;52.268;5.192;2022-12-16T01:43:30;16.95;;;7.68;;
74626;SDS011;63132;52.268;5.192;2022-12-16T01:46:02;22.10;;;8.13;;
74626;SDS011;63132;52.268;5.192;2022-12-16T01:48:34;15.75;;;8.05;;
74626;SDS011;63132;52.268;5.192;2022-12-16T01:51:13;18.93;;;8.87;;
74626;SDS011;63132;52.268;5.192;2022-12-16T01:53:42;20.77;;;9.02;;
74626;SDS011;63132;52.268;5.192;2022-12-16T01:56:11;20.35;;;9.43;;
74626;SDS011;63132;52.268;5.192;2022-12-16T01:58:40;21.25;;;8.50;;
74626;SDS011;63132;52.268;5.192;2022-12-16T02:01:07;19.42;;;9.13;;
74626;SDS011;63132;52.268;5.192;2022-12-16T02:03:34;16.50;;;9.07;;
74626;SDS011;63132;52.268;5.192;2022-12-16T02:06:00;17.15;;;9.38;;
74626;SDS011;63132;52.268;5.192;2022-12-16T02:08:27;20.15;;;10.15;;
74626;SDS011;63132;52.268;5.192;2022-12-16T02:11:00;23.93;;;10.23;;
74626;SDS011;63132;52.268;5.192;2022-12-16T02:23:04;25.67;;;11.93;;
74626;SDS011;63132;52.268;5.192;2022-12-16T02:41:55;22.05;;;11.05;;
74626;SDS011;63132;52.268;5.192;2022-12-16T02:44:34;23.48;;;11.15;;
74626;SDS011;63132;52.268;5.192;2022-12-16T02:47:15;22.88;;;10.82;;
74626;SDS011;63132;52.268;5.192;2022-12-16T02:49:42;20.45;;;11.18;;
74626;SDS011;63132;52.268;5.192;2022-12-16T02:52:15;22.30;;;11.25;;
74626;SDS011;63132;52.268;5.192;2022-12-16T02:54:44;23.17;;;11.87;;
74626;SDS011;63132;52.268;5.192;2022-12-16T03:00:07;23.27;;;11.60;;
74626;SDS011;63132;52.268;5.192;2022-12-16T03:07:53;21.38;;;11.35;;
74626;SDS011;63132;52.268;5.192;2022-12-16T03:10:24;24.05;;;12.27;;
74626;SDS011;63132;52.268;5.192;2022-12-16T03:12:52;21.38;;;11.77;;
74626;SDS011;63132;52.268;5.192;2022-12-16T03:15:20;23.90;;;11.90;;
74626;SDS011;63132;52.268;5.192;2022-12-16T03:17:49;24.35;;;12.45;;
74626;SDS011;63132;52.268;5.192;2022-12-16T03:20:18;25.60;;;12.85;;
74626;SDS011;63132;52.268;5.192;2022-12-16T03:22:50;26.10;;;12.88;;
74626;SDS011;63132;52.268;5.192;2022-12-16T03:25:18;25.23;;;12.95;;
74626;SDS011;63132;52.268;5.192;2022-12-16T03:27:50;24.40;;;12.43;;
74626;SDS011;63132;52.268;5.192;2022-12-16T03:30:25;26.20;;;12.47;;
74626;SDS011;63132;52.268;5.192;2022-12-16T03:33:06;24.48;;;12.68;;
74626;SDS011;63132;52.268;5.192;2022-12-16T03:35:47;26.00;;;13.57;;
74626;SDS011;63132;52.268;5.192;2022-12-16T03:38:16;26.67;;;13.00;;
74626;SDS011;63132;52.268;5.192;2022-12-16T03:40:45;23.30;;;12.50;;
74626;SDS011;63132;52.268;5.192;2022-12-16T03:43:12;21.38;;;12.00;;
74626;SDS011;63132;52.268;5.192;2022-12-16T03:45:39;24.02;;;11.40;;
74626;SDS011;63132;52.268;5.192;2022-12-16T03:48:08;28.45;;;11.55;;
74626;SDS011;63132;52.268;5.192;2022-12-16T03:50:35;25.02;;;11.38;;
74626;SDS011;63132;52.268;5.192;2022-12-16T03:53:02;23.02;;;11.40;;
74626;SDS011;63132;52.268;5.192;2022-12-16T03:55:28;26.23;;;11.90;;
74626;SDS011;63132;52.268;5.192;2022-12-16T03:57:53;22.17;;;11.00;;
74626;SDS011;63132;52.268;5.192;2022-12-16T04:00:19;20.05;;;10.32;;
74626;SDS011;63132;52.268;5.192;2022-12-16T04:02:45;24.10;;;10.47;;
74626;SDS011;63132;52.268;5.192;2022-12-16T04:05:11;26.57;;;11.10;;
74626;SDS011;63132;52.268;5.192;2022-12-16T04:07:36;22.58;;;10.38;;
74626;SDS011;63132;52.268;5.192;2022-12-16T04:10:02;22.93;;;11.13;;
74626;SDS011;63132;52.268;5.192;2022-12-16T04:12:29;19.08;;;9.40;;
74626;SDS011;63132;52.268;5.192;2022-12-16T04:15:13;26.25;;;10.48;;
74626;SDS011;63132;52.268;5.192;2022-12-16T04:17:57;19.08;;;9.30;;
74626;SDS011;63132;52.268;5.192;2022-12-16T04:20:42;22.38;;;10.65;;
74626;SDS011;63132;52.268;5.192;2022-12-16T04:23:28;23.17;;;10.43;;
74626;SDS011;63132;52.268;5.192;2022-12-16T04:26:14;23.52;;;10.07;;
74626;SDS011;63132;52.268;5.192;2022-12-16T04:28:40;24.57;;;10.80;;
74626;SDS011;63132;52.268;5.192;2022-12-16T04:31:06;23.67;;;10.40;;
74626;SDS011;63132;52.268;5.192;2022-12-16T04:33:31;22.43;;;10.40;;
74626;SDS011;63132;52.268;5.192;2022-12-16T04:36:15;23.88;;;10.63;;
74626;SDS011;63132;52.268;5.192;2022-12-16T04:38:59;23.08;;;10.60;;
74626;SDS011;63132;52.268;5.192;2022-12-16T04:41:43;24.23;;;10.27;;
74626;SDS011;63132;52.268;5.192;2022-12-16T04:44:27;24.92;;;11.30;;
74626;SDS011;63132;52.268;5.192;2022-12-16T04:47:11;21.03;;;10.17;;
74626;SDS011;63132;52.268;5.192;2022-12-16T04:49:55;23.73;;;10.55;;
74626;SDS011;63132;52.268;5.192;2022-12-16T04:52:39;23.25;;;10.38;;
74626;SDS011;63132;52.268;5.192;2022-12-16T04:55:23;23.33;;;10.10;;
74626;SDS011;63132;52.268;5.192;2022-12-16T04:58:07;23.35;;;10.75;;
74626;SDS011;63132;52.268;5.192;2022-12-16T05:00:51;21.48;;;10.70;;
74626;SDS011;63132;52.268;5.192;2022-12-16T05:03:35;21.25;;;10.65;;
74626;SDS011;63132;52.268;5.192;2022-12-16T05:06:20;30.15;;;11.65;;
74626;SDS011;63132;52.268;5.192;2022-12-16T05:09:04;29.65;;;12.95;;
74626;SDS011;63132;52.268;5.192;2022-12-16T05:11:48;27.48;;;12.07;;
74626;SDS011;63132;52.268;5.192;2022-12-16T05:14:32;26.00;;;11.98;;
74626;SDS011;63132;52.268;5.192;2022-12-16T05:17:16;23.73;;;11.48;;
74626;SDS011;63132;52.268;5.192;2022-12-16T05:20:00;29.80;;;12.30;;
74626;SDS011;63132;52.268;5.192;2022-12-16T05:22:43;30.83;;;13.70;;
74626;SDS011;63132;52.268;5.192;2022-12-16T05:25:27;28.90;;;13.05;;
74626;SDS011;63132;52.268;5.192;2022-12-16T05:28:11;28.57;;;13.20;;
74626;SDS011;63132;52.268;5.192;2022-12-16T05:30:56;31.08;;;13.85;;
74626;SDS011;63132;52.268;5.192;2022-12-16T05:33:40;26.13;;;12.70;;
74626;SDS011;63132;52.268;5.192;2022-12-16T05:36:24;27.85;;;12.20;;
74626;SDS011;63132;52.268;5.192;2022-12-16T05:39:08;29.95;;;13.50;;
74626;SDS011;63132;52.268;5.192;2022-12-16T05:41:52;27.13;;;12.95;;
74626;SDS011;63132;52.268;5.192;2022-12-16T05:44:37;27.58;;;12.95;;
74626;SDS011;63132;52.268;5.192;2022-12-16T05:47:21;30.40;;;13.25;;
74626;SDS011;63132;52.268;5.192;2022-12-16T05:50:05;27.42;;;13.02;;
74626;SDS011;63132;52.268;5.192;2022-12-16T05:52:50;30.15;;;13.23;;
74626;SDS011;63132;52.268;5.192;2022-12-16T05:55:36;35.78;;;12.88;;
74626;SDS011;63132;52.268;5.192;2022-12-16T05:58:19;29.37;;;12.83;;
74626;SDS011;63132;52.268;5.192;2022-12-16T06:01:14;27.67;;;12.07;;
74626;SDS011;63132;52.268;5.192;2022-12-16T06:03:58;27.15;;;12.52;;
74626;SDS011;63132;52.268;5.192;2022-12-16T06:06:42;26.92;;;12.68;;
74626;SDS011;63132;52.268;5.192;2022-12-16T06:09:26;30.23;;;12.48;;
74626;SDS011;63132;52.268;5.192;2022-12-16T06:12:10;27.33;;;11.97;;
74626;SDS011;63132;52.268;5.192;2022-12-16T06:14:54;27.25;;;12.70;;
74626;SDS011;63132;52.268;5.192;2022-12-16T06:17:56;23.92;;;11.50;;
74626;SDS011;63132;52.268;5.192;2022-12-16T06:20:40;23.60;;;11.55;;
74626;SDS011;63132;52.268;5.192;2022-12-16T06:23:24;27.03;;;11.73;;
74626;SDS011;63132;52.268;5.192;2022-12-16T06:26:07;22.23;;;12.02;;
74626;SDS011;63132;52.268;5.192;2022-12-16T06:28:51;27.63;;;11.90;;
74626;SDS011;63132;52.268;5.192;2022-12-16T06:31:35;23.60;;;11.73;;
74626;SDS011;63132;52.268;5.192;2022-12-16T06:34:33;23.63;;;11.65;;
74626;SDS011;63132;52.268;5.192;2022-12-16T06:37:17;22.27;;;11.15;;
74626;SDS011;63132;52.268;5.192;2022-12-16T06:40:01;21.97;;;10.97;;
74626;SDS011;63132;52.268;5.192;2022-12-16T06:42:45;22.15;;;11.93;;
74626;SDS011;63132;52.268;5.192;2022-12-16T06:45:29;22.85;;;11.07;;
74626;SDS011;63132;52.268;5.192;2022-12-16T06:48:13;21.55;;;11.63;;
74626;SDS011;63132;52.268;5.192;2022-12-16T06:50:57;24.88;;;11.70;;
74626;SDS011;63132;52.268;5.192;2022-12-16T06:53:40;22.77;;;10.43;;
74626;SDS011;63132;52.268;5.192;2022-12-16T06:56:24;22.23;;;10.32;;
74626;SDS011;63132;52.268;5.192;2022-12-16T06:59:08;19.90;;;9.45;;
74626;SDS011;63132;52.268;5.192;2022-12-16T07:01:52;18.13;;;9.95;;
74626;SDS011;63132;52.268;5.192;2022-12-16T07:04:36;16.60;;;9.25;;
74626;SDS011;63132;52.268;5.192;2022-12-16T07:07:20;20.07;;;9.70;;
74626;SDS011;63132;52.268;5.192;2022-12-16T07:10:04;21.83;;;9.85;;
74626;SDS011;63132;52.268;5.192;2022-12-16T07:12:49;16.65;;;9.35;;
74626;SDS011;63132;52.268;5.192;2022-12-16T07:15:32;17.42;;;9.80;;
74626;SDS011;63132;52.268;5.192;2022-12-16T07:18:16;20.85;;;9.65;;
74626;SDS011;63132;52.268;5.192;2022-12-16T07:21:00;22.83;;;9.75;;
74626;SDS011;63132;52.268;5.192;2022-12-16T07:23:44;21.65;;;10.80;;
74626;SDS011;63132;52.268;5.192;2022-12-16T07:26:28;19.38;;;10.07;;
74626;SDS011;63132;52.268;5.192;2022-12-16T07:29:12;21.30;;;10.10;;
74626;SDS011;63132;52.268;5.192;2022-12-16T07:31:56;21.67;;;10.05;;
74626;SDS011;63132;52.268;5.192;2022-12-16T07:34:40;19.08;;;10.23;;
74626;SDS011;63132;52.268;5.192;2022-12-16T07:37:23;20.92;;;10.25;;
74626;SDS011;63132;52.268;5.192;2022-12-16T07:40:08;19.60;;;10.05;;
74626;SDS011;63132;52.268;5.192;2022-12-16T07:42:52;18.50;;;9.13;;
74626;SDS011;63132;52.268;5.192;2022-12-16T07:45:36;16.05;;;9.20;;
74626;SDS011;63132;52.268;5.192;2022-12-16T07:48:19;18.67;;;9.23;;
74626;SDS011;63132;52.268;5.192;2022-12-16T07:51:04;19.10;;;9.63;;
74626;SDS011;63132;52.268;5.192;2022-12-16T07:53:48;16.70;;;9.35;;
74626;SDS011;63132;52.268;5.192;2022-12-16T07:56:32;18.48;;;9.48;;
74626;SDS011;63132;52.268;5.192;2022-12-16T07:59:15;20.08;;;9.73;;
74626;SDS011;63132;52.268;5.192;2022-12-16T08:01:59;21.60;;;9.82;;
74626;SDS011;63132;52.268;5.192;2022-12-16T08:04:43;16.80;;;8.88;;
74626;SDS011;63132;52.268;5.192;2022-12-16T08:07:27;18.88;;;9.63;;
74626;SDS011;63132;52.268;5.192;2022-12-16T08:10:11;18.98;;;9.45;;
74626;SDS011;63132;52.268;5.192;2022-12-16T08:12:59;17.53;;;9.47;;
74626;SDS011;63132;52.268;5.192;2022-12-16T08:15:44;21.70;;;10.00;;
74626;SDS011;63132;52.268;5.192;2022-12-16T08:18:28;18.00;;;8.75;;
74626;SDS011;63132;52.268;5.192;2022-12-16T08:21:13;19.53;;;9.23;;
74626;SDS011;63132;52.268;5.192;2022-12-16T08:23:57;19.08;;;9.02;;
74626;SDS011;63132;52.268;5.192;2022-12-16T08:26:41;22.70;;;9.20;;
74626;SDS011;63132;52.268;5.192;2022-12-16T08:29:24;19.48;;;9.15;;
74626;SDS011;63132;52.268;5.192;2022-12-16T08:32:08;17.65;;;9.43;;
74626;SDS011;63132;52.268;5.192;2022-12-16T08:34:52;18.20;;;9.15;;
74626;SDS011;63132;52.268;5.192;2022-12-16T08:37:36;18.13;;;9.32;;
74626;SDS011;63132;52.268;5.192;2022-12-16T08:40:20;20.65;;;9.18;;
74626;SDS011;63132;52.268;5.192;2022-12-16T08:43:04;17.77;;;8.73;;
74626;SDS011;63132;52.268;5.192;2022-12-16T08:45:48;18.02;;;8.90;;
74626;SDS011;63132;52.268;5.192;2022-12-16T08:48:36;21.02;;;9.95;;
74626;SDS011;63132;52.268;5.192;2022-12-16T08:51:20;19.47;;;9.83;;
74626;SDS011;63132;52.268;5.192;2022-12-16T08:54:04;18.70;;;9.15;;
74626;SDS011;63132;52.268;5.192;2022-12-16T08:56:47;17.20;;;8.68;;
74626;SDS011;63132;52.268;5.192;2022-12-16T08:59:31;18.45;;;7.93;;
74626;SDS011;63132;52.268;5.192;2022-12-16T09:02:15;16.92;;;7.85;;
74626;SDS011;63132;52.268;5.192;2022-12-16T09:04:59;18.30;;;8.27;;
74626;SDS011;63132;52.268;5.192;2022-12-16T09:07:43;19.38;;;7.97;;
74626;SDS011;63132;52.268;5.192;2022-12-16T09:10:27;13.60;;;8.02;;
74626;SDS011;63132;52.268;5.192;2022-12-16T09:13:12;15.48;;;7.90;;
74626;SDS011;63132;52.268;5.192;2022-12-16T09:15:57;15.05;;;8.10;;
74626;SDS011;63132;52.268;5.192;2022-12-16T09:18:41;15.40;;;8.02;;
74626;SDS011;63132;52.268;5.192;2022-12-16T09:21:25;16.38;;;7.68;;
74626;SDS011;63132;52.268;5.192;2022-12-16T09:24:09;15.55;;;8.18;;
74626;SDS011;63132;52.268;5.192;2022-12-16T09:26:53;15.65;;;7.30;;
74626;SDS011;63132;52.268;5.192;2022-12-16T09:29:39;16.73;;;8.65;;
74626;SDS011;63132;52.268;5.192;2022-12-16T09:32:23;16.63;;;8.20;;
74626;SDS011;63132;52.268;5.192;2022-12-16T09:35:07;16.27;;;8.15;;
74626;SDS011;63132;52.268;5.192;2022-12-16T09:37:51;14.80;;;7.75;;
74626;SDS011;63132;52.268;5.192;2022-12-16T09:40:38;16.40;;;8.15;;
74626;SDS011;63132;52.268;5.192;2022-12-16T09:46:14;16.55;;;7.80;;
74626;SDS011;63132;52.268;5.192;2022-12-16T09:52:26;17.20;;;7.75;;
74626;SDS011;63132;52.268;5.192;2022-12-16T09:58:20;19.63;;;7.00;;
74626;SDS011;63132;52.268;5.192;2022-12-16T10:01:08;16.90;;;6.93;;
74626;SDS011;63132;52.268;5.192;2022-12-16T10:03:54;12.23;;;5.55;;
74626;SDS011;63132;52.268;5.192;2022-12-16T10:06:45;13.05;;;5.38;;
74626;SDS011;63132;52.268;5.192;2022-12-16T10:09:33;14.20;;;5.60;;
74626;SDS011;63132;52.268;5.192;2022-12-16T10:12:43;11.85;;;5.40;;
74626;SDS011;63132;52.268;5.192;2022-12-16T10:19:11;11.68;;;5.72;;
74626;SDS011;63132;52.268;5.192;2022-12-16T10:25:25;15.88;;;6.10;;
74626;SDS011;63132;52.268;5.192;2022-12-16T10:28:15;12.70;;;6.18;;
74626;SDS011;63132;52.268;5.192;2022-12-16T10:31:01;13.32;;;6.38;;
74626;SDS011;63132;52.268;5.192;2022-12-16T10:33:48;11.00;;;6.43;;
74626;SDS011;63132;52.268;5.192;2022-12-16T10:36:34;13.68;;;7.75;;
74626;SDS011;63132;52.268;5.192;2022-12-16T10:39:33;15.93;;;7.18;;
74626;SDS011;63132;52.268;5.192;2022-12-16T10:45:39;16.35;;;7.95;;
74626;SDS011;63132;52.268;5.192;2022-12-16T10:48:26;19.93;;;9.80;;
74626;SDS011;63132;52.268;5.192;2022-12-16T10:51:13;18.45;;;10.15;;
74626;SDS011;63132;52.268;5.192;2022-12-16T10:54:01;17.83;;;10.18;;
74626;SDS011;63132;52.268;5.192;2022-12-16T10:57:04;20.07;;;10.33;;
74626;SDS011;63132;52.268;5.192;2022-12-16T11:03:16;18.35;;;11.02;;
74626;SDS011;63132;52.268;5.192;2022-12-16T11:06:04;21.38;;;11.15;;
74626;SDS011;63132;52.268;5.192;2022-12-16T11:08:48;20.55;;;13.05;;
74626;SDS011;63132;52.268;5.192;2022-12-16T11:11:32;21.73;;;13.40;;
74626;SDS011;63132;52.268;5.192;2022-12-16T11:14:27;22.92;;;14.02;;
74626;SDS011;63132;52.268;5.192;2022-12-16T11:17:33;26.27;;;15.27;;
74626;SDS011;63132;52.268;5.192;2022-12-16T11:20:21;28.00;;;15.63;;
74626;SDS011;63132;52.268;5.192;2022-12-16T11:23:14;29.52;;;16.00;;
74626;SDS011;63132;52.268;5.192;2022-12-16T11:26:07;28.63;;;18.02;;
74626;SDS011;63132;52.268;5.192;2022-12-16T11:29:03;30.73;;;18.40;;
74626;SDS011;63132;52.268;5.192;2022-12-16T11:32:02;29.38;;;18.55;;
74626;SDS011;63132;52.268;5.192;2022-12-16T11:35:02;30.83;;;18.92;;
74626;SDS011;63132;52.268;5.192;2022-12-16T11:37:48;31.60;;;20.65;;
74626;SDS011;63132;52.268;5.192;2022-12-16T11:40:36;32.20;;;19.52;;
74626;SDS011;63132;52.268;5.192;2022-12-16T11:43:21;30.42;;;19.65;;
74626;SDS011;63132;52.268;5.192;2022-12-16T11:46:09;32.70;;;19.57;;
74626;SDS011;63132;52.268;5.192;2022-12-16T11:49:00;34.03;;;19.67;;
74626;SDS011;63132;52.268;5.192;2022-12-16T11:51:54;31.10;;;20.20;;
74626;SDS011;63132;52.268;5.192;2022-12-16T11:54:49;28.60;;;19.23;;
74626;SDS011;63132;52.268;5.192;2022-12-16T11:57:46;31.27;;;20.42;;
74626;SDS011;63132;52.268;5.192;2022-12-16T12:00:41;35.95;;;21.85;;
74626;SDS011;63132;52.268;5.192;2022-12-16T12:03:35;28.48;;;19.27;;
74626;SDS011;63132;52.268;5.192;2022-12-16T12:06:35;31.40;;;19.70;;
74626;SDS011;63132;52.268;5.192;2022-12-16T12:09:40;29.90;;;19.13;;
74626;SDS011;63132;52.268;5.192;2022-12-16T12:18:36;29.05;;;18.95;;
74626;SDS011;63132;52.268;5.192;2022-12-16T12:24:48;28.37;;;17.43;;
74626;SDS011;63132;52.268;5.192;2022-12-16T12:27:46;32.00;;;18.60;;
74626;SDS011;63132;52.268;5.192;2022-12-16T12:30:32;28.08;;;18.52;;
74626;SDS011;63132;52.268;5.192;2022-12-16T12:33:47;33.97;;;18.85;;
74626;SDS011;63132;52.268;5.192;2022-12-16T12:36:46;28.17;;;18.93;;
74626;SDS011;63132;52.268;5.192;2022-12-16T12:42:27;33.58;;;20.27;;
74626;SDS011;63132;52.268;5.192;2022-12-16T12:48:47;34.17;;;21.55;;
74626;SDS011;63132;52.268;5.192;2022-12-16T12:54:58;32.90;;;21.40;;
74626;SDS011;63132;52.268;5.192;2022-12-16T12:57:51;31.48;;;20.58;;
74626;SDS011;63132;52.268;5.192;2022-12-16T13:00:42;30.75;;;20.88;;
74626;SDS011;63132;52.268;5.192;2022-12-16T13:03:36;35.85;;;22.23;;
74626;SDS011;63132;52.268;5.192;2022-12-16T13:06:22;30.45;;;21.10;;
74626;SDS011;63132;52.268;5.192;2022-12-16T13:15:03;30.52;;;20.75;;
74626;SDS011;63132;52.268;5.192;2022-12-16T13:20:42;36.92;;;23.08;;
74626;SDS011;63132;52.268;5.192;2022-12-16T13:26:13;39.75;;;24.95;;
74626;SDS011;63132;52.268;5.192;2022-12-16T13:29:42;35.80;;;23.90;;
74626;SDS011;63132;52.268;5.192;2022-12-16T13:38:16;38.40;;;24.23;;
74626;SDS011;63132;52.268;5.192;2022-12-16T13:41:04;38.40;;;23.92;;
74626;SDS011;63132;52.268;5.192;2022-12-16T13:44:09;40.88;;;24.00;;
74626;SDS011;63132;52.268;5.192;2022-12-16T13:46:54;38.22;;;22.85;;
74626;SDS011;63132;52.268;5.192;2022-12-16T13:49:49;32.73;;;21.37;;
74626;SDS011;63132;52.268;5.192;2022-12-16T13:55:56;34.50;;;22.63;;
74626;SDS011;63132;52.268;5.192;2022-12-16T13:58:44;31.10;;;20.23;;
74626;SDS011;63132;52.268;5.192;2022-12-16T14:01:33;32.55;;;21.08;;
74626;SDS011;63132;52.268;5.192;2022-12-16T14:04:32;32.20;;;20.73;;
74626;SDS011;63132;52.268;5.192;2022-12-16T14:07:19;32.33;;;19.70;;
74626;SDS011;63132;52.268;5.192;2022-12-16T14:10:05;31.48;;;18.50;;
74626;SDS011;63132;52.268;5.192;2022-12-16T14:16:11;30.83;;;18.13;;
74626;SDS011;63132;52.268;5.192;2022-12-16T14:21:50;26.45;;;16.08;;
74626;SDS011;63132;52.268;5.192;2022-12-16T14:24:36;25.17;;;15.38;;
74626;SDS011;63132;52.268;5.192;2022-12-16T14:27:21;26.30;;;15.48;;
74626;SDS011;63132;52.268;5.192;2022-12-16T14:30:22;24.33;;;14.90;;
74626;SDS011;63132;52.268;5.192;2022-12-16T14:33:20;23.20;;;14.50;;
74626;SDS011;63132;52.268;5.192;2022-12-16T14:36:23;22.27;;;13.93;;
74626;SDS011;63132;52.268;5.192;2022-12-16T14:39:13;23.17;;;12.95;;
74626;SDS011;63132;52.268;5.192;2022-12-16T14:42:14;18.42;;;12.38;;
74626;SDS011;63132;52.268;5.192;2022-12-16T14:45:02;18.58;;;12.25;;
74626;SDS011;63132;52.268;5.192;2022-12-16T14:47:47;21.98;;;12.77;;
74626;SDS011;63132;52.268;5.192;2022-12-16T14:50:30;22.10;;;13.13;;
74626;SDS011;63132;52.268;5.192;2022-12-16T14:53:19;23.77;;;13.27;;
74626;SDS011;63132;52.268;5.192;2022-12-16T14:56:15;21.35;;;12.40;;
74626;SDS011;63132;52.268;5.192;2022-12-16T14:59:13;19.15;;;11.82;;
74626;SDS011;63132;52.268;5.192;2022-12-16T15:02:02;21.73;;;12.07;;
74626;SDS011;63132;52.268;5.192;2022-12-16T15:05:01;22.80;;;12.18;;
74626;SDS011;63132;52.268;5.192;2022-12-16T15:07:46;19.95;;;11.95;;
74626;SDS011;63132;52.268;5.192;2022-12-16T15:10:32;20.17;;;11.30;;
74626;SDS011;63132;52.268;5.192;2022-12-16T15:13:16;18.70;;;10.82;;
74626;SDS011;63132;52.268;5.192;2022-12-16T15:16:05;19.63;;;10.63;;
74626;SDS011;63132;52.268;5.192;2022-12-16T15:18:59;16.20;;;9.93;;
74626;SDS011;63132;52.268;5.192;2022-12-16T15:21:44;17.63;;;10.27;;
74626;SDS011;63132;52.268;5.192;2022-12-16T15:24:30;17.13;;;9.68;;
74626;SDS011;63132;52.268;5.192;2022-12-16T15:33:18;22.73;;;12.02;;
74626;SDS011;63132;52.268;5.192;2022-12-16T15:36:04;18.98;;;13.35;;
74626;SDS011;63132;52.268;5.192;2022-12-16T15:38:53;23.33;;;14.23;;
74626;SDS011;63132;52.268;5.192;2022-12-16T15:41:37;19.63;;;13.57;;
74626;SDS011;63132;52.268;5.192;2022-12-16T15:44:25;20.85;;;12.73;;
74626;SDS011;63132;52.268;5.192;2022-12-16T15:47:33;24.23;;;12.82;;
74626;SDS011;63132;52.268;5.192;2022-12-16T15:50:20;21.38;;;14.07;;
74626;SDS011;63132;52.268;5.192;2022-12-16T15:56:18;23.20;;;13.50;;
74626;SDS011;63132;52.268;5.192;2022-12-16T15:59:14;22.35;;;14.07;;
74626;SDS011;63132;52.268;5.192;2022-12-16T16:02:12;24.40;;;14.55;;
74626;SDS011;63132;52.268;5.192;2022-12-16T16:05:13;27.60;;;15.93;;
74626;SDS011;63132;52.268;5.192;2022-12-16T16:07:59;29.88;;;16.27;;
74626;SDS011;63132;52.268;5.192;2022-12-16T16:10:43;30.65;;;16.63;;
74626;SDS011;63132;52.268;5.192;2022-12-16T16:13:27;28.33;;;17.15;;
74626;SDS011;63132;52.268;5.192;2022-12-16T16:16:11;32.25;;;17.85;;
74626;SDS011;63132;52.268;5.192;2022-12-16T16:18:55;30.05;;;17.95;;
74626;SDS011;63132;52.268;5.192;2022-12-16T16:21:39;33.78;;;18.63;;
74626;SDS011;63132;52.268;5.192;2022-12-16T16:24:24;32.75;;;18.63;;
74626;SDS011;63132;52.268;5.192;2022-12-16T16:27:08;36.05;;;19.52;;
74626;SDS011;63132;52.268;5.192;2022-12-16T16:29:55;33.95;;;19.35;;
74626;SDS011;63132;52.268;5.192;2022-12-16T16:32:39;35.08;;;19.52;;
74626;SDS011;63132;52.268;5.192;2022-12-16T16:35:23;35.10;;;19.83;;
74626;SDS011;63132;52.268;5.192;2022-12-16T16:38:09;36.67;;;21.30;;
74626;SDS011;63132;52.268;5.192;2022-12-16T16:40:54;35.67;;;22.20;;
74626;SDS011;63132;52.268;5.192;2022-12-16T16:43:37;35.63;;;21.15;;
74626;SDS011;63132;52.268;5.192;2022-12-16T16:46:32;37.53;;;21.23;;
74626;SDS011;63132;52.268;5.192;2022-12-16T16:49:23;37.47;;;21.52;;
74626;SDS011;63132;52.268;5.192;2022-12-16T16:52:11;40.45;;;22.27;;
74626;SDS011;63132;52.268;5.192;2022-12-16T16:54:56;37.45;;;23.02;;
74626;SDS011;63132;52.268;5.192;2022-12-16T16:57:40;37.28;;;21.65;;
74626;SDS011;63132;52.268;5.192;2022-12-16T17:00:24;34.67;;;21.55;;
74626;SDS011;63132;52.268;5.192;2022-12-16T17:03:08;41.05;;;24.25;;
74626;SDS011;63132;52.268;5.192;2022-12-16T17:05:52;48.33;;;28.15;;
74626;SDS011;63132;52.268;5.192;2022-12-16T17:08:36;49.75;;;31.45;;
74626;SDS011;63132;52.268;5.192;2022-12-16T17:11:20;45.97;;;29.27;;
74626;SDS011;63132;52.268;5.192;2022-12-16T17:14:07;52.47;;;32.00;;
74626;SDS011;63132;52.268;5.192;2022-12-16T17:16:54;49.45;;;30.23;;
74626;SDS011;63132;52.268;5.192;2022-12-16T17:19:38;55.17;;;34.30;;
74626;SDS011;63132;52.268;5.192;2022-12-16T17:22:22;58.58;;;34.10;;
74626;SDS011;63132;52.268;5.192;2022-12-16T17:25:06;51.97;;;34.15;;
74626;SDS011;63132;52.268;5.192;2022-12-16T17:27:50;53.70;;;33.35;;
74626;SDS011;63132;52.268;5.192;2022-12-16T17:30:34;55.30;;;36.13;;
74626;SDS011;63132;52.268;5.192;2022-12-16T17:33:18;54.92;;;36.83;;
74626;SDS011;63132;52.268;5.192;2022-12-16T17:36:02;53.10;;;35.85;;
74626;SDS011;63132;52.268;5.192;2022-12-16T17:38:46;56.15;;;37.92;;
74626;SDS011;63132;52.268;5.192;2022-12-16T17:41:31;64.93;;;41.67;;
74626;SDS011;63132;52.268;5.192;2022-12-16T17:44:15;48.47;;;28.75;;
74626;SDS011;63132;52.268;5.192;2022-12-16T17:47:00;45.15;;;27.73;;